sensor_id;sensor_type;location;lat;lon;timestamp;temperature;humidity
17762;DHT22;9005;48.838;10.112;2023-10-08T00:01:49;14.80;43.10
17762;DHT22;9005;48.838;10.112;2023-10-08T00:04:16;14.80;43.50
17762;DHT22;9005;48.838;10.112;2023-10-08T00:06:44;14.80;43.30
17762;DHT22;9005;48.838;10.112;2023-10-08T00:09:12;14.70;43.70
17762;DHT22;9005;48.838;10.112;2023-10-08T00:11:40;14.80;43.30
17762;DHT22;9005;48.838;10.112;2023-10-08T00:14:08;14.80;43.70
17762;DHT22;9005;48.838;10.112;2023-10-08T00:16:37;14.70;44.30
17762;DHT22;9005;48.838;10.112;2023-10-08T00:19:06;14.60;43.80
17762;DHT22;9005;48.838;10.112;2023-10-08T00:21:38;14.60;44.10
17762;DHT22;9005;48.838;10.112;2023-10-08T00:24:06;14.60;43.90
17762;DHT22;9005;48.838;10.112;2023-10-08T00:26:34;14.50;44.10
17762;DHT22;9005;48.838;10.112;2023-10-08T00:29:07;14.40;44.50
17762;DHT22;9005;48.838;10.112;2023-10-08T00:31:43;14.40;44.10
17762;DHT22;9005;48.838;10.112;2023-10-08T00:34:11;14.40;44.00
17762;DHT22;9005;48.838;10.112;2023-10-08T00:36:40;14.40;44.30
17762;DHT22;9005;48.838;10.112;2023-10-08T00:39:08;14.40;45.00
17762;DHT22;9005;48.838;10.112;2023-10-08T00:41:39;14.30;44.60
17762;DHT22;9005;48.838;10.112;2023-10-08T00:44:08;14.20;44.90
17762;DHT22;9005;48.838;10.112;2023-10-08T00:46:38;14.20;44.80
17762;DHT22;9005;48.838;10.112;2023-10-08T00:49:09;14.10;44.90
17762;DHT22;9005;48.838;10.112;2023-10-08T00:51:50;14.20;44.80
17762;DHT22;9005;48.838;10.112;2023-10-08T00:54:29;14.10;44.80
17762;DHT22;9005;48.838;10.112;2023-10-08T00:56:59;14.10;44.70
17762;DHT22;9005;48.838;10.112;2023-10-08T00:59:31;14.00;45.20
17762;DHT22;9005;48.838;10.112;2023-10-08T01:02:06;14.00;45.80
17762;DHT22;9005;48.838;10.112;2023-10-08T01:04:42;13.90;45.90
17762;DHT22;9005;48.838;10.112;2023-10-08T01:07:11;13.80;46.30
17762;DHT22;9005;48.838;10.112;2023-10-08T01:09:38;13.70;46.60
17762;DHT22;9005;48.838;10.112;2023-10-08T01:12:09;13.60;46.80
17762;DHT22;9005;48.838;10.112;2023-10-08T01:14:38;13.50;47.10
17762;DHT22;9005;48.838;10.112;2023-10-08T01:17:08;13.40;47.60
17762;DHT22;9005;48.838;10.112;2023-10-08T01:19:35;13.40;47.80
17762;DHT22;9005;48.838;10.112;2023-10-08T01:22:07;13.40;48.00
17762;DHT22;9005;48.838;10.112;2023-10-08T01:24:38;13.40;48.20
17762;DHT22;9005;48.838;10.112;2023-10-08T01:27:06;13.40;48.10
17762;DHT22;9005;48.838;10.112;2023-10-08T01:29:37;13.40;48.40
17762;DHT22;9005;48.838;10.112;2023-10-08T01:32:04;13.40;48.50
17762;DHT22;9005;48.838;10.112;2023-10-08T01:34:35;13.40;48.00
17762;DHT22;9005;48.838;10.112;2023-10-08T01:37:02;13.40;48.00
17762;DHT22;9005;48.838;10.112;2023-10-08T01:39:36;13.40;48.40
17762;DHT22;9005;48.838;10.112;2023-10-08T01:42:03;13.50;48.10
17762;DHT22;9005;48.838;10.112;2023-10-08T01:44:31;13.50;48.50
17762;DHT22;9005;48.838;10.112;2023-10-08T01:46:59;13.50;48.80
17762;DHT22;9005;48.838;10.112;2023-10-08T01:49:26;13.60;48.70
17762;DHT22;9005;48.838;10.112;2023-10-08T01:51:58;13.60;48.40
17762;DHT22;9005;48.838;10.112;2023-10-08T01:54:31;13.60;48.20
17762;DHT22;9005;48.838;10.112;2023-10-08T01:57:02;13.70;49.80
17762;DHT22;9005;48.838;10.112;2023-10-08T01:59:31;13.70;48.10
17762;DHT22;9005;48.838;10.112;2023-10-08T02:01:59;13.70;49.10
17762;DHT22;9005;48.838;10.112;2023-10-08T02:04:26;13.70;48.40
17762;DHT22;9005;48.838;10.112;2023-10-08T02:06:52;13.70;49.70
17762;DHT22;9005;48.838;10.112;2023-10-08T02:09:19;13.70;48.80
17762;DHT22;9005;48.838;10.112;2023-10-08T02:11:52;13.60;48.50
17762;DHT22;9005;48.838;10.112;2023-10-08T02:14:21;13.60;48.20
17762;DHT22;9005;48.838;10.112;2023-10-08T02:16:49;13.70;48.10
17762;DHT22;9005;48.838;10.112;2023-10-08T02:19:20;13.80;47.90
17762;DHT22;9005;48.838;10.112;2023-10-08T02:21:52;13.80;48.10
17762;DHT22;9005;48.838;10.112;2023-10-08T02:24:20;13.80;47.90
17762;DHT22;9005;48.838;10.112;2023-10-08T02:26:50;13.80;47.80
17762;DHT22;9005;48.838;10.112;2023-10-08T02:29:17;13.80;48.40
17762;DHT22;9005;48.838;10.112;2023-10-08T02:31:45;13.70;48.40
17762;DHT22;9005;48.838;10.112;2023-10-08T02:34:13;13.60;48.10
17762;DHT22;9005;48.838;10.112;2023-10-08T02:36:40;13.50;48.20
17762;DHT22;9005;48.838;10.112;2023-10-08T02:39:07;13.50;48.30
17762;DHT22;9005;48.838;10.112;2023-10-08T02:41:43;13.40;48.50
17762;DHT22;9005;48.838;10.112;2023-10-08T02:44:11;13.30;48.90
17762;DHT22;9005;48.838;10.112;2023-10-08T02:46:39;13.20;49.00
17762;DHT22;9005;48.838;10.112;2023-10-08T02:49:08;13.10;49.40
17762;DHT22;9005;48.838;10.112;2023-10-08T02:51:38;13.10;49.60
17762;DHT22;9005;48.838;10.112;2023-10-08T02:54:07;13.00;49.80
17762;DHT22;9005;48.838;10.112;2023-10-08T02:56:42;12.90;49.90
17762;DHT22;9005;48.838;10.112;2023-10-08T02:59:10;12.80;50.30
17762;DHT22;9005;48.838;10.112;2023-10-08T03:01:38;12.70;50.50
17762;DHT22;9005;48.838;10.112;2023-10-08T03:04:05;12.60;50.80
17762;DHT22;9005;48.838;10.112;2023-10-08T03:06:41;12.60;50.20
17762;DHT22;9005;48.838;10.112;2023-10-08T03:09:08;12.70;50.40
17762;DHT22;9005;48.838;10.112;2023-10-08T03:11:35;12.70;50.70
17762;DHT22;9005;48.838;10.112;2023-10-08T03:14:02;12.70;50.50
17762;DHT22;9005;48.838;10.112;2023-10-08T03:16:30;12.60;51.80
17762;DHT22;9005;48.838;10.112;2023-10-08T03:19:01;12.60;52.00
17762;DHT22;9005;48.838;10.112;2023-10-08T03:21:31;12.60;52.10
17762;DHT22;9005;48.838;10.112;2023-10-08T03:24:15;12.50;52.10
17762;DHT22;9005;48.838;10.112;2023-10-08T03:26:55;12.40;52.60
17762;DHT22;9005;48.838;10.112;2023-10-08T03:29:32;12.30;52.80
17762;DHT22;9005;48.838;10.112;2023-10-08T03:31:59;12.20;53.20
17762;DHT22;9005;48.838;10.112;2023-10-08T03:34:31;12.10;53.10
17762;DHT22;9005;48.838;10.112;2023-10-08T03:36:59;12.10;52.40
17762;DHT22;9005;48.838;10.112;2023-10-08T03:39:32;12.00;53.40
17762;DHT22;9005;48.838;10.112;2023-10-08T03:42:13;12.00;53.10
17762;DHT22;9005;48.838;10.112;2023-10-08T03:44:45;12.00;53.90
17762;DHT22;9005;48.838;10.112;2023-10-08T03:47:16;12.10;53.20
17762;DHT22;9005;48.838;10.112;2023-10-08T03:49:45;12.20;53.30
17762;DHT22;9005;48.838;10.112;2023-10-08T03:52:12;12.20;51.40
17762;DHT22;9005;48.838;10.112;2023-10-08T03:54:40;12.30;52.20
17762;DHT22;9005;48.838;10.112;2023-10-08T03:57:14;12.40;52.40
17762;DHT22;9005;48.838;10.112;2023-10-08T03:59:50;12.40;52.10
17762;DHT22;9005;48.838;10.112;2023-10-08T04:02:20;12.40;51.60
17762;DHT22;9005;48.838;10.112;2023-10-08T04:04:49;12.40;52.70
17762;DHT22;9005;48.838;10.112;2023-10-08T04:07:17;12.30;51.50
17762;DHT22;9005;48.838;10.112;2023-10-08T04:10:07;12.30;52.00
17762;DHT22;9005;48.838;10.112;2023-10-08T04:13:05;12.20;52.80
17762;DHT22;9005;48.838;10.112;2023-10-08T04:15:34;12.10;52.60
17762;DHT22;9005;48.838;10.112;2023-10-08T04:18:06;12.00;52.80
17762;DHT22;9005;48.838;10.112;2023-10-08T04:20:34;11.90;52.50
17762;DHT22;9005;48.838;10.112;2023-10-08T04:23:05;11.90;52.30
17762;DHT22;9005;48.838;10.112;2023-10-08T04:25:40;12.00;52.60
17762;DHT22;9005;48.838;10.112;2023-10-08T04:28:08;12.00;52.00
17762;DHT22;9005;48.838;10.112;2023-10-08T04:30:40;12.00;52.80
17762;DHT22;9005;48.838;10.112;2023-10-08T04:33:08;12.00;52.80
17762;DHT22;9005;48.838;10.112;2023-10-08T04:35:42;11.90;53.80
17762;DHT22;9005;48.838;10.112;2023-10-08T04:38:14;11.90;54.20
17762;DHT22;9005;48.838;10.112;2023-10-08T04:40:45;11.80;53.30
17762;DHT22;9005;48.838;10.112;2023-10-08T04:43:15;11.70;53.70
17762;DHT22;9005;48.838;10.112;2023-10-08T04:45:47;11.70;54.10
17762;DHT22;9005;48.838;10.112;2023-10-08T04:48:14;11.60;54.10
17762;DHT22;9005;48.838;10.112;2023-10-08T04:50:46;11.60;54.30
17762;DHT22;9005;48.838;10.112;2023-10-08T04:53:24;11.60;54.40
17762;DHT22;9005;48.838;10.112;2023-10-08T04:55:58;11.70;54.30
17762;DHT22;9005;48.838;10.112;2023-10-08T04:58:30;11.70;54.80
17762;DHT22;9005;48.838;10.112;2023-10-08T05:01:02;11.70;55.00
17762;DHT22;9005;48.838;10.112;2023-10-08T05:03:43;11.70;54.90
17762;DHT22;9005;48.838;10.112;2023-10-08T05:06:22;11.70;54.60
17762;DHT22;9005;48.838;10.112;2023-10-08T05:09:06;11.70;55.10
17762;DHT22;9005;48.838;10.112;2023-10-08T05:11:39;11.70;54.80
17762;DHT22;9005;48.838;10.112;2023-10-08T05:14:32;11.70;54.80
17762;DHT22;9005;48.838;10.112;2023-10-08T05:17:05;11.60;55.00
17762;DHT22;9005;48.838;10.112;2023-10-08T05:19:36;11.60;55.20
17762;DHT22;9005;48.838;10.112;2023-10-08T05:22:22;11.60;55.30
17762;DHT22;9005;48.838;10.112;2023-10-08T05:25:09;11.60;55.50
17762;DHT22;9005;48.838;10.112;2023-10-08T05:27:52;11.60;55.60
17762;DHT22;9005;48.838;10.112;2023-10-08T05:30:34;11.70;55.80
17762;DHT22;9005;48.838;10.112;2023-10-08T05:33:04;11.70;56.00
17762;DHT22;9005;48.838;10.112;2023-10-08T05:35:51;11.70;56.10
17762;DHT22;9005;48.838;10.112;2023-10-08T05:38:28;11.70;55.80
17762;DHT22;9005;48.838;10.112;2023-10-08T05:41:14;11.80;56.00
17762;DHT22;9005;48.838;10.112;2023-10-08T05:43:54;11.90;55.40
17762;DHT22;9005;48.838;10.112;2023-10-08T05:46:38;11.90;55.80
17762;DHT22;9005;48.838;10.112;2023-10-08T05:49:31;12.00;54.80
17762;DHT22;9005;48.838;10.112;2023-10-08T05:52:20;12.20;54.30
17762;DHT22;9005;48.838;10.112;2023-10-08T05:55:07;12.60;53.90
17762;DHT22;9005;48.838;10.112;2023-10-08T05:57:51;12.80;53.40
17762;DHT22;9005;48.838;10.112;2023-10-08T06:00:29;13.00;52.80
17762;DHT22;9005;48.838;10.112;2023-10-08T06:03:12;13.10;52.20
17762;DHT22;9005;48.838;10.112;2023-10-08T06:05:53;13.20;52.30
17762;DHT22;9005;48.838;10.112;2023-10-08T06:08:42;13.20;52.10
17762;DHT22;9005;48.838;10.112;2023-10-08T06:11:16;13.20;52.60
17762;DHT22;9005;48.838;10.112;2023-10-08T06:13:54;13.20;53.20
17762;DHT22;9005;48.838;10.112;2023-10-08T06:16:27;13.10;53.00
17762;DHT22;9005;48.838;10.112;2023-10-08T06:19:12;13.00;53.40
17762;DHT22;9005;48.838;10.112;2023-10-08T06:21:39;13.00;53.50
17762;DHT22;9005;48.838;10.112;2023-10-08T06:24:07;12.90;53.60
17762;DHT22;9005;48.838;10.112;2023-10-08T06:26:36;12.90;53.10
17762;DHT22;9005;48.838;10.112;2023-10-08T06:29:09;12.90;53.80
17762;DHT22;9005;48.838;10.112;2023-10-08T06:31:45;13.00;52.90
17762;DHT22;9005;48.838;10.112;2023-10-08T06:34:17;13.00;53.00
17762;DHT22;9005;48.838;10.112;2023-10-08T06:36:47;13.00;53.10
17762;DHT22;9005;48.838;10.112;2023-10-08T06:39:19;13.10;55.00
17762;DHT22;9005;48.838;10.112;2023-10-08T06:41:52;13.20;55.30
17762;DHT22;9005;48.838;10.112;2023-10-08T06:44:19;13.20;54.50
17762;DHT22;9005;48.838;10.112;2023-10-08T06:46:47;13.30;53.80
17762;DHT22;9005;48.838;10.112;2023-10-08T06:49:18;13.30;53.60
17762;DHT22;9005;48.838;10.112;2023-10-08T06:51:45;13.40;54.00
17762;DHT22;9005;48.838;10.112;2023-10-08T06:54:13;13.40;53.10
17762;DHT22;9005;48.838;10.112;2023-10-08T06:56:43;13.40;53.40
17762;DHT22;9005;48.838;10.112;2023-10-08T06:59:12;13.50;53.60
17762;DHT22;9005;48.838;10.112;2023-10-08T07:01:39;13.50;53.30
17762;DHT22;9005;48.838;10.112;2023-10-08T07:04:08;13.60;53.10
17762;DHT22;9005;48.838;10.112;2023-10-08T07:06:37;13.70;53.50
17762;DHT22;9005;48.838;10.112;2023-10-08T07:09:06;13.80;53.50
17762;DHT22;9005;48.838;10.112;2023-10-08T07:11:39;14.00;53.50
17762;DHT22;9005;48.838;10.112;2023-10-08T07:14:11;14.20;53.20
17762;DHT22;9005;48.838;10.112;2023-10-08T07:16:39;14.30;54.10
17762;DHT22;9005;48.838;10.112;2023-10-08T07:19:08;14.50;51.30
17762;DHT22;9005;48.838;10.112;2023-10-08T07:21:44;14.60;53.30
17762;DHT22;9005;48.838;10.112;2023-10-08T07:24:11;14.80;49.90
17762;DHT22;9005;48.838;10.112;2023-10-08T07:26:41;14.90;50.40
17762;DHT22;9005;48.838;10.112;2023-10-08T07:29:13;15.10;52.00
17762;DHT22;9005;48.838;10.112;2023-10-08T07:31:43;15.30;51.30
17762;DHT22;9005;48.838;10.112;2023-10-08T07:34:15;15.50;51.90
17762;DHT22;9005;48.838;10.112;2023-10-08T07:36:45;15.70;51.40
17762;DHT22;9005;48.838;10.112;2023-10-08T07:39:12;15.90;49.10
17762;DHT22;9005;48.838;10.112;2023-10-08T07:41:50;16.10;48.50
17762;DHT22;9005;48.838;10.112;2023-10-08T07:44:17;16.20;49.10
17762;DHT22;9005;48.838;10.112;2023-10-08T07:46:46;16.30;47.40
17762;DHT22;9005;48.838;10.112;2023-10-08T07:49:14;16.40;47.80
17762;DHT22;9005;48.838;10.112;2023-10-08T07:51:41;16.40;48.60
17762;DHT22;9005;48.838;10.112;2023-10-08T07:54:17;16.40;49.00
17762;DHT22;9005;48.838;10.112;2023-10-08T07:56:45;16.40;49.60
17762;DHT22;9005;48.838;10.112;2023-10-08T07:59:13;16.40;50.10
17762;DHT22;9005;48.838;10.112;2023-10-08T08:01:42;16.40;50.10
17762;DHT22;9005;48.838;10.112;2023-10-08T08:04:09;16.40;50.10
17762;DHT22;9005;48.838;10.112;2023-10-08T08:06:38;16.50;49.40
17762;DHT22;9005;48.838;10.112;2023-10-08T08:09:05;16.60;50.60
17762;DHT22;9005;48.838;10.112;2023-10-08T08:11:35;16.70;47.90
17762;DHT22;9005;48.838;10.112;2023-10-08T08:14:03;16.70;48.70
17762;DHT22;9005;48.838;10.112;2023-10-08T08:16:33;16.80;48.30
17762;DHT22;9005;48.838;10.112;2023-10-08T08:19:02;16.90;48.90
17762;DHT22;9005;48.838;10.112;2023-10-08T08:21:29;16.90;47.20
17762;DHT22;9005;48.838;10.112;2023-10-08T08:23:58;16.90;48.10
17762;DHT22;9005;48.838;10.112;2023-10-08T08:26:30;17.00;48.30
17762;DHT22;9005;48.838;10.112;2023-10-08T08:29:05;17.10;48.20
17762;DHT22;9005;48.838;10.112;2023-10-08T08:31:34;17.20;47.30
17762;DHT22;9005;48.838;10.112;2023-10-08T08:34:02;17.30;46.50
17762;DHT22;9005;48.838;10.112;2023-10-08T08:36:35;17.40;45.70
17762;DHT22;9005;48.838;10.112;2023-10-08T08:39:06;17.40;46.40
17762;DHT22;9005;48.838;10.112;2023-10-08T08:41:37;17.60;46.30
17762;DHT22;9005;48.838;10.112;2023-10-08T08:44:04;17.70;46.50
17762;DHT22;9005;48.838;10.112;2023-10-08T08:46:33;17.90;45.70
17762;DHT22;9005;48.838;10.112;2023-10-08T08:49:04;17.90;45.90
17762;DHT22;9005;48.838;10.112;2023-10-08T08:51:33;17.90;45.80
17762;DHT22;9005;48.838;10.112;2023-10-08T08:54:01;17.80;46.10
17762;DHT22;9005;48.838;10.112;2023-10-08T08:56:33;17.70;46.40
17762;DHT22;9005;48.838;10.112;2023-10-08T08:59:01;17.70;46.90
17762;DHT22;9005;48.838;10.112;2023-10-08T09:01:29;17.80;46.30
17762;DHT22;9005;48.838;10.112;2023-10-08T09:04:01;17.70;46.60
17762;DHT22;9005;48.838;10.112;2023-10-08T09:06:31;17.60;47.50
17762;DHT22;9005;48.838;10.112;2023-10-08T09:08:59;17.40;48.70
17762;DHT22;9005;48.838;10.112;2023-10-08T09:11:41;17.50;48.70
17762;DHT22;9005;48.838;10.112;2023-10-08T09:14:08;17.50;49.70
17762;DHT22;9005;48.838;10.112;2023-10-08T09:16:36;17.60;49.30
17762;DHT22;9005;48.838;10.112;2023-10-08T09:19:03;17.60;50.20
17762;DHT22;9005;48.838;10.112;2023-10-08T09:21:38;17.70;49.50
17762;DHT22;9005;48.838;10.112;2023-10-08T09:24:05;17.70;49.60
17762;DHT22;9005;48.838;10.112;2023-10-08T09:26:36;17.90;50.30
17762;DHT22;9005;48.838;10.112;2023-10-08T09:29:06;18.00;49.90
17762;DHT22;9005;48.838;10.112;2023-10-08T09:31:34;18.30;49.40
17762;DHT22;9005;48.838;10.112;2023-10-08T09:34:03;18.50;48.70
17762;DHT22;9005;48.838;10.112;2023-10-08T09:36:31;18.90;48.70
17762;DHT22;9005;48.838;10.112;2023-10-08T09:39:00;19.30;48.40
17762;DHT22;9005;48.838;10.112;2023-10-08T09:41:31;19.60;46.50
17762;DHT22;9005;48.838;10.112;2023-10-08T09:43:58;19.50;45.70
17762;DHT22;9005;48.838;10.112;2023-10-08T09:46:30;19.40;46.00
17762;DHT22;9005;48.838;10.112;2023-10-08T09:48:59;19.40;46.20
17762;DHT22;9005;48.838;10.112;2023-10-08T09:51:29;19.40;46.50
17762;DHT22;9005;48.838;10.112;2023-10-08T09:54:03;19.30;46.20
17762;DHT22;9005;48.838;10.112;2023-10-08T09:56:36;19.20;46.10
17762;DHT22;9005;48.838;10.112;2023-10-08T09:59:05;19.10;46.30
17762;DHT22;9005;48.838;10.112;2023-10-08T10:01:34;19.10;46.10
17762;DHT22;9005;48.838;10.112;2023-10-08T10:04:06;19.10;46.70
17762;DHT22;9005;48.838;10.112;2023-10-08T10:06:33;19.10;46.60
17762;DHT22;9005;48.838;10.112;2023-10-08T10:09:01;19.10;46.80
17762;DHT22;9005;48.838;10.112;2023-10-08T10:11:32;19.10;46.20
17762;DHT22;9005;48.838;10.112;2023-10-08T10:14:00;19.20;46.80
17762;DHT22;9005;48.838;10.112;2023-10-08T10:16:27;19.50;45.50
17762;DHT22;9005;48.838;10.112;2023-10-08T10:18:57;19.60;45.30
17762;DHT22;9005;48.838;10.112;2023-10-08T10:21:26;19.60;45.50
17762;DHT22;9005;48.838;10.112;2023-10-08T10:23:54;19.50;46.30
17762;DHT22;9005;48.838;10.112;2023-10-08T10:26:24;19.60;46.70
17762;DHT22;9005;48.838;10.112;2023-10-08T10:29:22;19.70;46.70
17762;DHT22;9005;48.838;10.112;2023-10-08T10:31:52;19.80;45.90
17762;DHT22;9005;48.838;10.112;2023-10-08T10:34:22;19.80;46.00
17762;DHT22;9005;48.838;10.112;2023-10-08T10:36:53;19.80;46.10
17762;DHT22;9005;48.838;10.112;2023-10-08T10:39:25;19.80;46.40
17762;DHT22;9005;48.838;10.112;2023-10-08T10:41:58;19.80;46.00
17762;DHT22;9005;48.838;10.112;2023-10-08T10:44:27;19.90;46.80
17762;DHT22;9005;48.838;10.112;2023-10-08T10:46:55;20.30;46.60
17762;DHT22;9005;48.838;10.112;2023-10-08T10:49:38;20.90;45.30
17762;DHT22;9005;48.838;10.112;2023-10-08T10:52:14;21.10;44.40
17762;DHT22;9005;48.838;10.112;2023-10-08T10:54:44;21.10;44.50
17762;DHT22;9005;48.838;10.112;2023-10-08T10:57:24;21.00;45.40
17762;DHT22;9005;48.838;10.112;2023-10-08T11:00:04;20.90;45.50
17762;DHT22;9005;48.838;10.112;2023-10-08T11:02:56;20.90;46.00
17762;DHT22;9005;48.838;10.112;2023-10-08T11:05:27;21.10;44.90
17762;DHT22;9005;48.838;10.112;2023-10-08T11:07:55;21.50;44.60
17762;DHT22;9005;48.838;10.112;2023-10-08T11:10:26;22.40;43.20
17762;DHT22;9005;48.838;10.112;2023-10-08T11:12:54;22.80;42.40
17762;DHT22;9005;48.838;10.112;2023-10-08T11:15:25;23.10;41.90
17762;DHT22;9005;48.838;10.112;2023-10-08T11:17:58;23.50;41.20
17762;DHT22;9005;48.838;10.112;2023-10-08T11:20:27;23.80;39.90
17762;DHT22;9005;48.838;10.112;2023-10-08T11:22:55;23.60;41.00
17762;DHT22;9005;48.838;10.112;2023-10-08T11:25:27;23.60;40.70
17762;DHT22;9005;48.838;10.112;2023-10-08T11:27:56;23.60;40.70
17762;DHT22;9005;48.838;10.112;2023-10-08T11:30:27;23.70;40.60
17762;DHT22;9005;48.838;10.112;2023-10-08T11:32:56;23.70;40.50
17762;DHT22;9005;48.838;10.112;2023-10-08T11:35:25;23.40;41.00
17762;DHT22;9005;48.838;10.112;2023-10-08T11:37:58;23.00;41.50
17762;DHT22;9005;48.838;10.112;2023-10-08T11:40:27;23.00;41.40
17762;DHT22;9005;48.838;10.112;2023-10-08T11:42:55;23.60;40.40
17762;DHT22;9005;48.838;10.112;2023-10-08T11:45:24;23.90;39.70
17762;DHT22;9005;48.838;10.112;2023-10-08T11:47:52;23.90;39.90
17762;DHT22;9005;48.838;10.112;2023-10-08T11:50:25;23.90;39.90
17762;DHT22;9005;48.838;10.112;2023-10-08T11:52:59;23.70;39.80
17762;DHT22;9005;48.838;10.112;2023-10-08T11:55:28;23.40;40.00
17762;DHT22;9005;48.838;10.112;2023-10-08T11:57:58;22.90;41.20
17762;DHT22;9005;48.838;10.112;2023-10-08T12:00:26;22.50;41.90
17762;DHT22;9005;48.838;10.112;2023-10-08T12:02:53;22.30;42.10
17762;DHT22;9005;48.838;10.112;2023-10-08T12:05:21;22.30;42.20
17762;DHT22;9005;48.838;10.112;2023-10-08T12:07:49;22.30;42.10
17762;DHT22;9005;48.838;10.112;2023-10-08T12:10:19;22.20;42.10
17762;DHT22;9005;48.838;10.112;2023-10-08T12:12:49;22.70;41.30
17762;DHT22;9005;48.838;10.112;2023-10-08T12:15:17;23.10;40.70
17762;DHT22;9005;48.838;10.112;2023-10-08T12:17:46;23.80;39.80
17762;DHT22;9005;48.838;10.112;2023-10-08T12:20:34;24.60;38.20
17762;DHT22;9005;48.838;10.112;2023-10-08T12:23:02;25.40;37.50
17762;DHT22;9005;48.838;10.112;2023-10-08T12:25:31;25.40;36.40
17762;DHT22;9005;48.838;10.112;2023-10-08T12:27:59;24.70;37.70
17762;DHT22;9005;48.838;10.112;2023-10-08T12:30:28;24.50;38.70
17762;DHT22;9005;48.838;10.112;2023-10-08T12:32:57;24.50;38.30
17762;DHT22;9005;48.838;10.112;2023-10-08T12:35:25;24.30;37.90
17762;DHT22;9005;48.838;10.112;2023-10-08T12:37:52;24.20;38.20
17762;DHT22;9005;48.838;10.112;2023-10-08T12:40:19;24.10;37.70
17762;DHT22;9005;48.838;10.112;2023-10-08T12:42:50;24.00;38.00
17762;DHT22;9005;48.838;10.112;2023-10-08T12:45:17;24.10;38.20
17762;DHT22;9005;48.838;10.112;2023-10-08T12:47:48;24.30;39.00
17762;DHT22;9005;48.838;10.112;2023-10-08T12:50:16;24.60;37.40
17762;DHT22;9005;48.838;10.112;2023-10-08T12:52:43;24.70;37.90
17762;DHT22;9005;48.838;10.112;2023-10-08T12:55:18;24.80;37.50
17762;DHT22;9005;48.838;10.112;2023-10-08T13:00:22;25.10;37.50
17762;DHT22;9005;48.838;10.112;2023-10-08T13:02:50;25.20;37.10
17762;DHT22;9005;48.838;10.112;2023-10-08T13:05:21;25.30;37.80
17762;DHT22;9005;48.838;10.112;2023-10-08T13:07:54;25.90;37.20
17762;DHT22;9005;48.838;10.112;2023-10-08T13:10:21;26.40;36.00
17762;DHT22;9005;48.838;10.112;2023-10-08T13:12:49;26.40;36.00
17762;DHT22;9005;48.838;10.112;2023-10-08T13:15:16;25.90;36.30
17762;DHT22;9005;48.838;10.112;2023-10-08T13:17:43;25.30;37.20
17762;DHT22;9005;48.838;10.112;2023-10-08T13:20:11;25.00;38.30
17762;DHT22;9005;48.838;10.112;2023-10-08T13:22:38;25.40;38.50
17762;DHT22;9005;48.838;10.112;2023-10-08T13:25:05;26.20;36.40
17762;DHT22;9005;48.838;10.112;2023-10-08T13:27:33;27.10;35.70
17762;DHT22;9005;48.838;10.112;2023-10-08T13:30:06;27.70;35.30
17762;DHT22;9005;48.838;10.112;2023-10-08T13:32:35;28.20;34.70
17762;DHT22;9005;48.838;10.112;2023-10-08T13:35:03;28.70;33.60
17762;DHT22;9005;48.838;10.112;2023-10-08T13:37:32;29.00;33.20
17762;DHT22;9005;48.838;10.112;2023-10-08T13:39:59;29.20;32.90
17762;DHT22;9005;48.838;10.112;2023-10-08T13:42:26;29.10;32.60
17762;DHT22;9005;48.838;10.112;2023-10-08T13:44:52;28.60;32.60
17762;DHT22;9005;48.838;10.112;2023-10-08T13:47:20;28.10;33.80
17762;DHT22;9005;48.838;10.112;2023-10-08T13:49:51;28.10;34.00
17762;DHT22;9005;48.838;10.112;2023-10-08T13:52:18;28.70;33.00
17762;DHT22;9005;48.838;10.112;2023-10-08T13:54:46;28.60;33.30
17762;DHT22;9005;48.838;10.112;2023-10-08T13:57:17;28.20;33.50
17762;DHT22;9005;48.838;10.112;2023-10-08T13:59:45;27.60;34.20
17762;DHT22;9005;48.838;10.112;2023-10-08T14:02:11;26.80;35.00
17762;DHT22;9005;48.838;10.112;2023-10-08T14:04:42;25.90;35.40
17762;DHT22;9005;48.838;10.112;2023-10-08T14:07:10;25.10;36.20
17762;DHT22;9005;48.838;10.112;2023-10-08T14:09:42;24.60;37.20
17762;DHT22;9005;48.838;10.112;2023-10-08T14:12:11;24.30;38.10
17762;DHT22;9005;48.838;10.112;2023-10-08T14:14:39;24.10;38.70
17762;DHT22;9005;48.838;10.112;2023-10-08T14:17:09;24.10;38.40
17762;DHT22;9005;48.838;10.112;2023-10-08T14:19:41;24.10;38.60
17762;DHT22;9005;48.838;10.112;2023-10-08T14:22:17;24.20;38.80
17762;DHT22;9005;48.838;10.112;2023-10-08T14:24:47;24.40;39.10
17762;DHT22;9005;48.838;10.112;2023-10-08T14:27:24;24.80;38.20
17762;DHT22;9005;48.838;10.112;2023-10-08T14:29:56;25.00;37.80
17762;DHT22;9005;48.838;10.112;2023-10-08T14:32:26;25.00;37.20
17762;DHT22;9005;48.838;10.112;2023-10-08T14:34:55;25.00;37.70
17762;DHT22;9005;48.838;10.112;2023-10-08T14:37:39;25.50;37.70
17762;DHT22;9005;48.838;10.112;2023-10-08T14:40:23;26.20;36.80
17762;DHT22;9005;48.838;10.112;2023-10-08T14:43:07;27.00;35.30
17762;DHT22;9005;48.838;10.112;2023-10-08T14:45:37;27.40;34.60
17762;DHT22;9005;48.838;10.112;2023-10-08T14:48:07;27.50;34.40
17762;DHT22;9005;48.838;10.112;2023-10-08T14:50:38;27.70;34.40
17762;DHT22;9005;48.838;10.112;2023-10-08T14:53:04;27.80;34.50
17762;DHT22;9005;48.838;10.112;2023-10-08T14:55:31;28.00;34.00
17762;DHT22;9005;48.838;10.112;2023-10-08T14:58:00;28.10;34.20
17762;DHT22;9005;48.838;10.112;2023-10-08T15:00:33;28.20;33.50
17762;DHT22;9005;48.838;10.112;2023-10-08T15:03:01;28.30;33.70
17762;DHT22;9005;48.838;10.112;2023-10-08T15:05:29;28.70;33.70
17762;DHT22;9005;48.838;10.112;2023-10-08T15:07:58;28.80;32.80
17762;DHT22;9005;48.838;10.112;2023-10-08T15:10:25;28.50;33.10
17762;DHT22;9005;48.838;10.112;2023-10-08T15:12:52;28.40;34.20
17762;DHT22;9005;48.838;10.112;2023-10-08T15:15:19;28.20;33.00
17762;DHT22;9005;48.838;10.112;2023-10-08T15:17:50;27.70;33.80
17762;DHT22;9005;48.838;10.112;2023-10-08T15:20:17;27.10;34.40
17762;DHT22;9005;48.838;10.112;2023-10-08T15:22:47;26.60;35.60
17762;DHT22;9005;48.838;10.112;2023-10-08T15:25:17;26.10;36.60
17762;DHT22;9005;48.838;10.112;2023-10-08T15:27:45;25.40;37.20
17762;DHT22;9005;48.838;10.112;2023-10-08T15:30:14;24.70;38.50
17762;DHT22;9005;48.838;10.112;2023-10-08T15:32:43;24.30;39.30
17762;DHT22;9005;48.838;10.112;2023-10-08T15:35:11;23.80;40.20
17762;DHT22;9005;48.838;10.112;2023-10-08T15:37:41;23.40;40.40
17762;DHT22;9005;48.838;10.112;2023-10-08T15:40:09;22.90;41.70
17762;DHT22;9005;48.838;10.112;2023-10-08T15:42:46;22.60;42.40
17762;DHT22;9005;48.838;10.112;2023-10-08T15:45:13;22.30;42.80
17762;DHT22;9005;48.838;10.112;2023-10-08T15:47:40;22.00;43.50
17762;DHT22;9005;48.838;10.112;2023-10-08T15:50:08;21.70;43.90
17762;DHT22;9005;48.838;10.112;2023-10-08T15:52:35;21.50;44.60
17762;DHT22;9005;48.838;10.112;2023-10-08T15:55:03;21.20;45.20
17762;DHT22;9005;48.838;10.112;2023-10-08T15:57:30;21.10;46.00